createdAt,value
2018-07-19T00:01:03.188Z,91617.52
2018-07-19T00:03:37.178Z,91607.41
2018-07-19T00:06:11.256Z,91610.14
2018-07-19T00:08:45.200Z,91605.83
2018-07-19T00:11:19.318Z,91593.36
2018-07-19T00:13:53.334Z,91600.18
2018-07-19T00:16:27.477Z,91605.86
2018-07-19T00:19:01.518Z,91607.06
2018-07-19T00:21:35.466Z,91605.06
2018-07-19T00:24:09.461Z,91594.91
2018-07-19T00:26:43.560Z,91593.45
2018-07-19T00:29:17.511Z,91594.69
2018-07-19T00:31:51.622Z,91593.36
2018-07-19T00:34:25.760Z,91594.75
2018-07-19T00:36:59.730Z,91581.08
2018-07-19T00:39:33.691Z,91588.50
2018-07-19T00:42:07.876Z,91598.18
2018-07-19T00:44:41.827Z,91602.88
2018-07-19T00:47:15.900Z,91594.66
2018-07-19T00:49:50.056Z,91593.89
2018-07-19T00:52:24.030Z,91597.89
2018-07-19T00:54:57.933Z,91594.66
2018-07-19T00:57:31.969Z,91589.17
2018-07-19T01:00:06.177Z,91594.72
2018-07-19T01:02:40.758Z,91589.99
2018-07-19T01:05:14.755Z,91589.10
2018-07-19T01:07:48.729Z,91593.09
2018-07-19T01:10:22.659Z,91588.64
2018-07-19T01:12:56.828Z,91584.16
2018-07-19T01:15:35.973Z,91578.41
2018-07-19T01:18:10.073Z,91580.19
2018-07-19T01:20:44.166Z,91577.89
2018-07-19T01:23:18.302Z,91569.81
2018-07-19T01:25:52.435Z,91579.56
2018-07-19T01:28:26.641Z,91582.45
2018-07-19T01:31:00.684Z,91586.58
2018-07-19T01:33:34.857Z,91581.06
2018-07-19T01:36:08.708Z,91591.90
2018-07-19T01:38:42.711Z,91583.82
2018-07-19T01:43:33.104Z,91587.77
2018-07-19T01:46:07.041Z,91592.89
2018-07-19T01:48:41.053Z,91592.16
2018-07-19T01:51:15.060Z,91599.88
2018-07-19T01:53:49.064Z,91597.98
2018-07-19T01:56:23.085Z,91601.10
2018-07-19T01:58:57.185Z,91599.70
2018-07-19T02:01:31.165Z,91599.64
2018-07-19T02:04:05.144Z,91591.45
2018-07-19T02:06:39.248Z,91590.06
2018-07-19T02:09:13.304Z,91585.70
2018-07-19T02:11:47.449Z,91596.53
2018-07-19T02:14:21.496Z,91587.48
2018-07-19T02:16:55.719Z,91589.72
2018-07-19T02:19:29.682Z,91589.68
2018-07-19T02:22:03.804Z,91585.56
2018-07-19T02:24:37.697Z,91581.30
2018-07-19T02:27:11.640Z,91577.31
2018-07-19T02:29:45.558Z,91586.84
2018-07-19T02:32:19.528Z,91577.38
2018-07-19T02:34:53.399Z,91568.95
2018-07-19T02:37:27.394Z,91573.22
2018-07-19T02:40:01.476Z,91563.75
2018-07-19T02:42:35.442Z,91567.66
2018-07-19T02:45:09.370Z,91563.17
2018-07-19T02:47:43.502Z,91560.16
2018-07-19T02:50:17.377Z,91536.96
2018-07-19T02:52:51.391Z,91539.55
2018-07-19T02:55:25.550Z,91525.75
2018-07-19T02:57:59.753Z,91522.30
2018-07-19T03:00:33.639Z,91526.80
2018-07-19T03:03:07.640Z,91519.77
2018-07-19T03:05:41.609Z,91528.95
2018-07-19T03:08:15.679Z,91522.80
2018-07-19T03:10:49.779Z,91521.70
2018-07-19T03:13:23.820Z,91520.48
2018-07-19T03:15:57.800Z,91531.23
2018-07-19T03:18:32.030Z,91521.81
2018-07-19T03:21:05.996Z,91516.19
2018-07-19T03:23:40.016Z,91503.27
2018-07-19T03:26:13.971Z,91494.77
2018-07-19T03:28:47.914Z,91479.02
2018-07-19T03:31:21.887Z,91475.53
2018-07-19T03:33:55.919Z,91470.30
2018-07-19T03:36:29.763Z,91464.19
2018-07-19T03:39:05.597Z,91459.48
2018-07-19T03:41:39.631Z,91480.35
2018-07-19T03:44:13.552Z,91488.07
2018-07-19T03:46:47.489Z,91486.84
2018-07-19T03:49:21.609Z,91493.16
2018-07-19T03:51:55.654Z,91504.23
2018-07-19T03:54:30.029Z,91503.35
2018-07-19T03:57:04.104Z,91504.81
2018-07-19T03:59:38.128Z,91502.73
2018-07-19T04:02:12.046Z,91494.11
2018-07-19T04:04:46.013Z,91501.55
2018-07-19T04:07:20.200Z,91502.66
2018-07-19T04:09:54.367Z,91511.17
2018-07-19T04:12:28.376Z,91512.36
2018-07-19T04:15:03.039Z,91523.14
2018-07-19T04:17:51.402Z,91528.33
2018-07-19T04:20:26.649Z,91528.88
2018-07-19T04:23:00.543Z,91533.50
2018-07-19T04:25:34.500Z,91552.86
2018-07-19T04:28:08.421Z,91525.83
2018-07-19T04:30:42.773Z,91536.71
2018-07-19T04:33:16.728Z,91535.09
2018-07-19T04:35:50.709Z,91533.18
2018-07-19T04:38:24.785Z,91528.88
2018-07-19T04:40:58.960Z,91527.59
2018-07-19T04:43:32.899Z,91528.51
2018-07-19T04:46:06.916Z,91520.52
2018-07-19T04:48:40.844Z,91529.20
2018-07-19T04:51:26.868Z,91534.86
2018-07-19T04:54:00.722Z,91548.66
2018-07-19T04:56:35.563Z,91547.55
2018-07-19T04:59:09.596Z,91530.53
2018-07-19T05:01:43.926Z,91549.46
2018-07-19T05:04:18.025Z,91548.37
2018-07-19T05:06:52.042Z,91536.23
2018-07-19T05:09:26.091Z,91543.11
2018-07-19T05:12:00.126Z,91541.09
2018-07-19T05:14:34.031Z,91539.73
2018-07-19T05:17:08.100Z,91526.66
2018-07-19T05:19:42.197Z,91534.20
2018-07-19T05:22:16.316Z,91534.23
2018-07-19T05:24:51.203Z,91534.31
2018-07-19T05:27:25.508Z,91542.20
2018-07-19T05:29:59.609Z,91544.85
2018-07-19T05:32:33.711Z,91541.84
2018-07-19T05:35:07.771Z,91546.00
2018-07-19T05:37:41.771Z,91540.52
2018-07-19T05:40:15.824Z,91531.83
2018-07-19T05:42:50.059Z,91532.03
2018-07-19T05:45:24.084Z,91530.05
2018-07-19T05:47:57.946Z,91535.60
2018-07-19T05:50:31.889Z,91534.83
2018-07-19T05:53:05.990Z,91523.69
2018-07-19T05:55:39.954Z,91518.55
2018-07-19T05:58:14.024Z,91528.05
2018-07-19T06:00:48.049Z,91524.16
2018-07-19T06:03:22.152Z,91513.27
2018-07-19T06:05:56.025Z,91517.98
2018-07-19T06:08:30.109Z,91520.23
2018-07-19T06:11:04.164Z,91514.39
2018-07-19T06:13:38.279Z,91520.77
2018-07-19T06:16:12.436Z,91503.52
2018-07-19T06:18:46.449Z,91497.64
2018-07-19T06:21:20.353Z,91494.33
2018-07-19T06:23:54.413Z,91494.78
2018-07-19T06:26:28.401Z,91490.23
2018-07-19T06:30:26.966Z,91494.72
2018-07-19T06:33:00.910Z,91489.83
2018-07-19T06:35:34.848Z,91490.37
2018-07-19T06:38:08.825Z,91493.30
2018-07-19T06:40:36.805Z,91482.66
2018-07-19T06:43:04.838Z,91484.89
2018-07-19T06:45:32.781Z,91485.95
2018-07-19T06:48:00.791Z,91487.63
2018-07-19T06:50:28.702Z,91484.98
2018-07-19T06:52:56.697Z,91491.58
2018-07-19T06:55:24.712Z,91486.24
2018-07-19T06:57:52.637Z,91493.34
2018-07-19T07:00:20.549Z,91490.80
2018-07-19T07:02:48.520Z,91501.92
2018-07-19T07:05:16.446Z,91493.19
2018-07-19T07:07:44.422Z,91497.91
2018-07-19T07:10:12.375Z,91495.02
2018-07-19T07:12:40.305Z,91503.86
2018-07-19T07:15:08.565Z,91511.80
2018-07-19T07:17:36.527Z,91503.27
2018-07-19T07:20:04.912Z,91493.34
2018-07-19T07:22:32.805Z,91501.17
2018-07-19T07:25:00.736Z,91506.48
2018-07-19T07:27:28.679Z,91499.89
2018-07-19T07:29:56.593Z,91502.02
2018-07-19T07:32:24.566Z,91507.12
2018-07-19T07:34:52.496Z,91509.78
2018-07-19T07:37:20.421Z,91511.74
2018-07-19T07:39:48.381Z,91523.31
2018-07-19T07:42:16.285Z,91523.20
2018-07-19T07:44:44.210Z,91529.65
2018-07-19T07:47:12.274Z,91525.20
2018-07-19T07:49:40.320Z,91522.20
2018-07-19T07:52:08.564Z,91530.81
2018-07-19T07:54:36.720Z,91521.28
2018-07-19T07:57:04.750Z,91542.25
2018-07-19T07:59:34.521Z,91539.45
2018-07-19T08:02:02.486Z,91542.07
2018-07-19T08:04:30.825Z,91543.15
2018-07-19T08:06:58.761Z,91538.73
2018-07-19T08:09:26.744Z,91535.07
2018-07-19T08:11:54.700Z,91541.55
2018-07-19T08:14:22.977Z,91554.05
2018-07-19T08:16:50.993Z,91531.91
2018-07-19T08:19:18.915Z,91524.25
2018-07-19T08:21:46.827Z,91526.86
2018-07-19T08:24:14.849Z,91529.88
2018-07-19T08:26:42.767Z,91514.62
2018-07-19T08:29:10.747Z,91513.35
2018-07-19T08:31:38.673Z,91527.47
2018-07-19T08:34:06.783Z,91537.53
2018-07-19T08:36:34.706Z,91533.26
2018-07-19T08:39:03.484Z,91522.84
2018-07-19T08:41:31.393Z,91518.10
2018-07-19T08:43:59.309Z,91511.77
2018-07-19T08:46:27.284Z,91505.38
2018-07-19T08:48:55.196Z,91492.17
2018-07-19T08:51:23.165Z,91491.22
2018-07-19T08:53:51.156Z,91485.36
2018-07-19T08:56:19.062Z,91503.11
2018-07-19T08:58:47.057Z,91502.78
2018-07-19T09:01:15.176Z,91507.00
2018-07-19T09:03:46.430Z,91505.40
2018-07-19T09:06:14.393Z,91510.09
2018-07-19T09:08:42.390Z,91517.23
2018-07-19T09:11:10.396Z,91509.38
2018-07-19T09:13:38.317Z,91518.67
2018-07-19T09:16:06.369Z,91523.87
2018-07-19T09:18:34.321Z,91522.38
2018-07-19T09:21:02.280Z,91518.72
2018-07-19T09:23:30.296Z,91516.12
2018-07-19T09:25:58.233Z,91518.39
2018-07-19T09:28:26.260Z,91513.09
2018-07-19T09:30:54.220Z,91528.48
2018-07-19T09:33:22.128Z,91522.19
2018-07-19T09:35:50.085Z,91522.63
2018-07-19T09:38:18.150Z,91516.97
2018-07-19T09:40:46.156Z,91519.59
2018-07-19T09:43:14.045Z,91517.95
2018-07-19T09:45:42.245Z,91509.12
2018-07-19T09:48:10.181Z,91501.11
2018-07-19T09:50:38.097Z,91509.93
2018-07-19T09:53:06.184Z,91520.73
2018-07-19T09:55:34.177Z,91509.57
2018-07-19T09:58:02.128Z,91507.69
2018-07-19T10:00:35.581Z,91513.11
2018-07-19T10:03:03.593Z,91509.70
2018-07-19T10:05:31.525Z,91498.50
2018-07-19T10:08:00.185Z,91515.16
2018-07-19T10:10:28.113Z,91505.80
2018-07-19T10:12:56.038Z,91503.69
2018-07-19T10:15:24.033Z,91517.16
2018-07-19T10:17:51.979Z,91532.19
2018-07-19T10:20:19.949Z,91534.77
2018-07-19T10:22:47.934Z,91531.66
2018-07-19T10:25:16.930Z,91544.12
2018-07-19T10:27:44.877Z,91552.62
2018-07-19T10:30:12.987Z,91545.83
2018-07-19T10:32:41.256Z,91550.79
2018-07-19T10:35:09.144Z,91541.94
2018-07-19T10:37:37.090Z,91528.88
2018-07-19T10:40:05.030Z,91533.28
2018-07-19T10:42:32.945Z,91531.94
2018-07-19T10:45:00.916Z,91535.69
2018-07-19T10:47:28.863Z,91535.98
2018-07-19T10:49:56.795Z,91537.62
2018-07-19T10:52:25.426Z,91535.39
2018-07-19T10:54:54.096Z,91545.90
2018-07-19T10:57:22.054Z,91528.77
2018-07-19T10:59:49.959Z,91547.09
2018-07-19T11:02:18.006Z,91536.77
2018-07-19T11:04:45.915Z,91542.75
2018-07-19T11:07:13.887Z,91533.09
2018-07-19T11:09:41.845Z,91542.05
2018-07-19T11:12:09.743Z,91540.91
2018-07-19T11:14:37.798Z,91540.44
2018-07-19T11:17:05.747Z,91553.40
2018-07-19T11:19:33.641Z,91557.34
2018-07-19T11:22:01.565Z,91554.63
2018-07-19T11:24:29.441Z,91560.05
2018-07-19T11:26:57.429Z,91561.22
2018-07-19T11:29:25.364Z,91565.02
2018-07-19T11:31:53.249Z,91574.69
2018-07-19T11:34:21.133Z,91574.41
2018-07-19T11:36:49.161Z,91566.05
2018-07-19T11:39:17.085Z,91558.70
2018-07-19T11:41:44.983Z,91562.52
2018-07-19T11:44:12.909Z,91562.86
2018-07-19T11:46:41.366Z,91570.59
2018-07-19T11:49:09.229Z,91563.75
2018-07-19T11:51:37.271Z,91568.30
2018-07-19T11:54:05.222Z,91573.47
2018-07-19T11:56:38.523Z,91584.84
2018-07-19T11:59:06.440Z,91591.44
2018-07-19T12:01:34.512Z,91593.59
2018-07-19T12:04:02.592Z,91589.14
2018-07-19T12:06:45.511Z,91590.00
2018-07-19T12:09:13.447Z,91581.91
2018-07-19T12:11:41.348Z,91579.90
2018-07-19T12:14:09.281Z,91583.83
2018-07-19T12:16:37.402Z,91583.23
2018-07-19T12:19:05.463Z,91583.83
2018-07-19T12:21:33.375Z,91577.52
2018-07-19T12:24:01.322Z,91599.91
2018-07-19T12:26:29.271Z,91576.75
2018-07-19T12:28:57.287Z,91575.05
2018-07-19T12:31:25.197Z,91585.63
2018-07-19T12:33:53.066Z,91585.16
2018-07-19T12:36:20.979Z,91583.98
2018-07-19T12:38:48.980Z,91589.81
2018-07-19T12:41:16.960Z,91582.75
2018-07-19T12:43:44.861Z,91592.24
2018-07-19T12:46:12.791Z,91592.51
2018-07-19T12:48:40.750Z,91592.48
2018-07-19T12:51:08.686Z,91605.25
2018-07-19T12:53:36.823Z,91592.75
2018-07-19T12:56:04.737Z,91603.44
2018-07-19T12:58:32.617Z,91598.19
2018-07-19T13:01:00.753Z,91600.05
2018-07-19T13:03:29.304Z,91596.52
2018-07-19T13:05:57.336Z,91598.59
2018-07-19T13:08:25.341Z,91595.11
2018-07-19T13:10:53.249Z,91590.05
2018-07-19T13:13:21.137Z,91608.12
2018-07-19T13:15:49.047Z,91596.38
2018-07-19T13:18:16.959Z,91604.31
2018-07-19T13:20:44.893Z,91622.59
2018-07-19T13:23:12.855Z,91608.06
2018-07-19T13:25:40.877Z,91599.52
2018-07-19T13:28:08.872Z,91614.98
2018-07-19T13:30:36.955Z,91596.92
2018-07-19T13:33:04.892Z,91609.94
2018-07-19T13:35:32.813Z,91606.89
2018-07-19T13:38:02.544Z,91624.27
2018-07-19T13:40:31.852Z,91612.22
2018-07-19T13:42:59.785Z,91606.55
2018-07-19T13:45:27.747Z,91621.19
2018-07-19T13:47:55.677Z,91616.09
2018-07-19T13:50:23.582Z,91630.94
2018-07-19T13:53:02.416Z,91621.93
2018-07-19T13:55:30.324Z,91613.94
2018-07-19T13:57:58.204Z,91613.11
2018-07-19T14:00:26.171Z,91609.87
2018-07-19T14:02:54.045Z,91614.09
2018-07-19T14:05:21.944Z,91630.55
2018-07-19T14:07:51.043Z,91615.80
2018-07-19T14:10:18.953Z,91625.23
2018-07-19T14:12:46.844Z,91613.97
2018-07-19T14:15:14.781Z,91623.06
2018-07-19T14:17:42.686Z,91622.11
2018-07-19T14:20:10.573Z,91622.58
2018-07-19T14:22:38.498Z,91616.28
2018-07-19T14:25:06.430Z,91613.64
2018-07-19T14:27:34.318Z,91623.30
2018-07-19T14:30:02.871Z,91632.17
2018-07-19T14:32:30.761Z,91610.08
2018-07-19T14:34:58.790Z,91605.38
2018-07-19T14:37:26.786Z,91610.15
2018-07-19T14:39:54.694Z,91613.19
2018-07-19T14:42:22.609Z,91616.81
2018-07-19T14:44:50.533Z,91607.31
2018-07-19T14:47:18.408Z,91603.58
2018-07-19T14:49:46.284Z,91607.75
2018-07-19T14:52:14.324Z,91607.03
2018-07-19T14:54:42.227Z,91604.91
2018-07-19T14:57:10.128Z,91606.72
2018-07-19T14:59:38.096Z,91603.36
2018-07-19T15:02:06.067Z,91604.17
2018-07-19T15:04:33.979Z,91595.02
2018-07-19T15:07:01.968Z,91603.22
2018-07-19T15:09:29.934Z,91604.59
2018-07-19T15:11:57.821Z,91603.63
2018-07-19T15:14:25.939Z,91600.75
2018-07-19T15:16:53.837Z,91600.98
2018-07-19T15:19:21.746Z,91596.75
2018-07-19T15:21:49.659Z,91596.96
2018-07-19T15:24:17.542Z,91613.59
2018-07-19T15:26:45.432Z,91610.70
2018-07-19T15:29:13.343Z,91615.14
2018-07-19T15:31:41.377Z,91608.44
2018-07-19T15:34:09.498Z,91612.98
2018-07-19T15:36:38.479Z,91613.94
2018-07-19T15:39:07.657Z,91619.53
2018-07-19T15:41:35.541Z,91612.54
2018-07-19T15:44:03.539Z,91620.81
2018-07-19T15:46:31.420Z,91613.23
2018-07-19T15:48:59.298Z,91610.57
2018-07-19T15:51:27.235Z,91614.72
2018-07-19T15:53:55.159Z,91612.12
2018-07-19T15:56:23.022Z,91623.30
2018-07-19T15:58:51.015Z,91616.02
2018-07-19T16:01:18.931Z,91616.81
2018-07-19T16:03:46.821Z,91616.69
2018-07-19T16:06:14.744Z,91619.09
2018-07-19T16:08:42.821Z,91623.29
2018-07-19T16:11:11.072Z,91625.22
2018-07-19T16:13:39.003Z,91622.67
2018-07-19T16:16:06.937Z,91621.41
2018-07-19T16:18:34.824Z,91626.34
2018-07-19T16:21:03.139Z,91634.67
2018-07-19T16:23:31.011Z,91632.03
2018-07-19T16:25:59.050Z,91629.30
2018-07-19T16:28:27.013Z,91635.41
2018-07-19T16:30:54.881Z,91642.72
2018-07-19T16:33:22.782Z,91642.14
2018-07-19T16:35:50.750Z,91655.50
2018-07-19T16:38:19.182Z,91657.09
2018-07-19T16:40:47.557Z,91655.89
2018-07-19T16:43:16.460Z,91660.50
2018-07-19T16:45:45.008Z,91648.14
2018-07-19T16:48:12.916Z,91657.67
2018-07-19T16:50:40.852Z,91659.22
2018-07-19T16:53:08.760Z,91671.83
2018-07-19T16:55:36.666Z,91672.69
2018-07-19T16:58:04.647Z,91680.58
2018-07-19T17:00:32.611Z,91677.19
2018-07-19T17:03:00.515Z,91680.97
2018-07-19T17:05:28.532Z,91670.26
2018-07-19T17:07:56.420Z,91678.45
2018-07-19T17:10:24.332Z,91677.71
2018-07-19T17:12:52.501Z,91681.38
2018-07-19T17:15:20.410Z,91681.14
2018-07-19T17:17:48.319Z,91686.47
2018-07-19T17:20:16.320Z,91683.67
2018-07-19T17:22:44.670Z,91688.43
2018-07-19T17:25:12.577Z,91696.49
2018-07-19T17:27:40.570Z,91690.86
2018-07-19T17:30:08.481Z,91700.91
2018-07-19T17:32:36.950Z,91693.03
2018-07-19T17:35:04.921Z,91688.84
2018-07-19T17:37:32.844Z,91692.38
2018-07-19T17:40:00.767Z,91690.03
2018-07-19T17:42:28.770Z,91690.03
2018-07-19T17:44:56.657Z,91694.36
2018-07-19T17:47:24.568Z,91700.84
2018-07-19T17:49:52.604Z,91697.94
2018-07-19T17:52:20.514Z,91704.77
2018-07-19T17:54:48.830Z,91706.55
2018-07-19T17:57:16.805Z,91703.19
2018-07-19T17:59:44.771Z,91707.42
2018-07-19T18:02:12.714Z,91705.88
2018-07-19T18:04:40.720Z,91705.70
2018-07-19T18:07:08.763Z,91706.41
2018-07-19T18:09:36.774Z,91714.87
2018-07-19T18:12:04.821Z,91707.20
2018-07-19T18:14:32.873Z,91705.52
2018-07-19T18:17:00.828Z,91716.87
2018-07-19T18:19:28.935Z,91715.87
2018-07-19T18:21:56.970Z,91729.95
2018-07-19T18:24:25.101Z,91732.45
2018-07-19T18:26:53.132Z,91737.65
2018-07-19T18:29:21.805Z,91737.30
2018-07-19T18:31:50.431Z,91738.78
2018-07-19T18:34:18.547Z,91748.20
2018-07-19T18:36:46.407Z,91747.34
2018-07-19T18:39:14.322Z,91755.98
2018-07-19T18:41:42.261Z,91758.62
2018-07-19T18:44:10.237Z,91760.66
2018-07-19T18:46:38.186Z,91758.04
2018-07-19T18:49:07.115Z,91770.18
2018-07-19T18:51:35.026Z,91773.56
2018-07-19T18:54:03.565Z,91773.84
2018-07-19T18:56:31.765Z,91769.52
2018-07-19T18:59:00.397Z,91764.53
2018-07-19T19:01:28.366Z,91768.70
2018-07-19T19:03:56.363Z,91764.97
2018-07-19T19:06:24.999Z,91765.89
2018-07-19T19:08:52.950Z,91767.41
2018-07-19T19:11:21.017Z,91774.34
2018-07-19T19:13:49.109Z,91770.88
2018-07-19T19:16:18.413Z,91777.25
2018-07-19T19:18:46.653Z,91782.20
2018-07-19T19:21:15.569Z,91780.55
2018-07-19T19:23:43.593Z,91783.36
2018-07-19T19:26:11.599Z,91789.92
2018-07-19T19:28:39.545Z,91784.97
2018-07-19T19:31:07.516Z,91783.85
2018-07-19T19:33:36.871Z,91789.96
2018-07-19T19:36:04.917Z,91786.99
2018-07-19T19:38:32.837Z,91778.00
2018-07-19T19:41:00.781Z,91786.69
2018-07-19T19:43:29.680Z,91789.63
2018-07-19T19:45:57.658Z,91791.12
2018-07-19T19:48:25.744Z,91789.67
2018-07-19T19:50:53.816Z,91781.95
2018-07-19T19:53:22.192Z,91781.16
2018-07-19T19:55:50.169Z,91787.59
2018-07-19T19:58:18.083Z,91782.77
2018-07-19T20:00:52.262Z,91787.69
2018-07-19T20:03:26.336Z,91784.42
2018-07-19T20:06:00.324Z,91786.28
2018-07-19T20:08:34.245Z,91796.17
2018-07-19T20:11:11.315Z,91786.98
2018-07-19T20:13:51.892Z,91792.75
2018-07-19T20:16:26.232Z,91790.89
2018-07-19T20:19:03.164Z,91800.42
2018-07-19T20:21:39.556Z,91801.29
2018-07-19T20:24:13.672Z,91806.61
2018-07-19T20:26:50.905Z,91808.42
2018-07-19T20:29:25.516Z,91805.95
2018-07-19T20:32:01.134Z,91806.14
2018-07-19T20:34:35.611Z,91813.77
2018-07-19T20:37:09.742Z,91812.36
2018-07-19T20:39:43.665Z,91812.23
2018-07-19T20:42:17.986Z,91807.67
2018-07-19T20:44:51.955Z,91808.86
2018-07-19T20:47:26.058Z,91811.22
2018-07-19T20:50:00.300Z,91813.85
2018-07-19T20:52:34.234Z,91811.05
2018-07-19T20:55:08.893Z,91810.09
2018-07-19T20:57:42.863Z,91811.45
2018-07-19T21:00:16.827Z,91821.33
2018-07-19T21:02:51.153Z,91810.36
2018-07-19T21:05:25.077Z,91815.80
2018-07-19T21:07:58.920Z,91813.08
2018-07-19T21:10:33.449Z,91822.94
2018-07-19T21:13:07.378Z,91824.91
2018-07-19T21:15:41.380Z,91826.17
2018-07-19T21:18:15.649Z,91821.31
2018-07-19T21:20:49.625Z,91818.41
2018-07-19T21:23:23.713Z,91820.52
2018-07-19T21:25:57.636Z,91816.17
2018-07-19T21:28:31.766Z,91811.26
2018-07-19T21:31:06.072Z,91817.67
2018-07-19T21:33:40.193Z,91822.44
2018-07-19T21:36:14.111Z,91812.66
2018-07-19T21:38:48.211Z,91811.66
2018-07-19T21:41:22.118Z,91811.52
2018-07-19T21:43:56.220Z,91813.67
2018-07-19T21:46:30.175Z,91816.04
2018-07-19T21:49:04.762Z,91811.61
2018-07-19T21:51:39.028Z,91813.67
2018-07-19T21:54:14.123Z,91808.75
2018-07-19T21:56:48.011Z,91817.25
2018-07-19T21:59:21.983Z,91817.00
2018-07-19T22:01:57.000Z,91816.86
2018-07-19T22:04:31.112Z,91813.73
2018-07-19T22:07:05.448Z,91810.41
2018-07-19T22:09:39.508Z,91804.84
2018-07-19T22:12:13.455Z,91811.31
2018-07-19T22:14:47.497Z,91803.44
2018-07-19T22:17:21.729Z,91802.13
2018-07-19T22:19:56.033Z,91808.48
2018-07-19T22:22:29.990Z,91808.73
2018-07-19T22:25:04.261Z,91812.29
2018-07-19T22:27:38.397Z,91812.45
2018-07-19T22:30:12.296Z,91819.59
2018-07-19T22:32:46.246Z,91823.45
2018-07-19T22:35:20.319Z,91825.83
2018-07-19T22:37:59.282Z,91827.33
2018-07-19T22:40:33.409Z,91829.81
2018-07-19T22:43:07.322Z,91833.76
2018-07-19T22:45:41.255Z,91831.69
2018-07-19T22:48:15.127Z,91827.80
2018-07-19T22:50:49.152Z,91827.66
2018-07-19T22:53:22.942Z,91815.09
2018-07-19T22:55:56.948Z,91821.00
2018-07-19T22:58:30.993Z,91816.63
2018-07-19T23:01:05.140Z,91817.70
2018-07-19T23:03:39.168Z,91814.89
2018-07-19T23:06:13.206Z,91825.05
2018-07-19T23:08:47.460Z,91821.31
2018-07-19T23:11:21.394Z,91817.19
2018-07-19T23:13:55.416Z,91812.69
2018-07-19T23:16:29.293Z,91811.80
2018-07-19T23:19:03.364Z,91809.23
2018-07-19T23:21:37.462Z,91804.17
2018-07-19T23:24:11.343Z,91815.08
2018-07-19T23:26:45.419Z,91821.45
2018-07-19T23:29:19.348Z,91822.02
2018-07-19T23:31:53.325Z,91839.23
2018-07-19T23:34:27.457Z,91836.61
2018-07-19T23:37:05.164Z,91827.11
2018-07-19T23:39:44.743Z,91835.20
2018-07-19T23:42:24.098Z,91832.82
2018-07-19T23:45:08.871Z,91831.52
2018-07-19T23:47:43.999Z,91830.11
2018-07-19T23:50:17.941Z,91832.58
2018-07-19T23:52:52.024Z,91832.39
2018-07-19T23:55:25.931Z,91833.75
2018-07-19T23:57:59.910Z,91837.27
